sensor_id;sensor_type;location;lat;lon;timestamp;temperature;humidity
78455;SHT31;67751;51.986;5.696;2023-05-07T00:00:52;17.3;74.4
78455;SHT31;67751;51.986;5.696;2023-05-07T00:03:22;17.3;74.5
78455;SHT31;67751;51.986;5.696;2023-05-07T00:05:52;17.3;74.2
78455;SHT31;67751;51.986;5.696;2023-05-07T00:08:24;17.3;74.2
78455;SHT31;67751;51.986;5.696;2023-05-07T00:10:53;17.3;74.3
78455;SHT31;67751;51.986;5.696;2023-05-07T00:13:23;17.3;74.3
78455;SHT31;67751;51.986;5.696;2023-05-07T00:15:53;17.3;74.2
78455;SHT31;67751;51.986;5.696;2023-05-07T00:18:22;17.3;74.2
78455;SHT31;67751;51.986;5.696;2023-05-07T00:20:52;17.3;74.1
78455;SHT31;67751;51.986;5.696;2023-05-07T00:23:22;17.3;74.0
78455;SHT31;67751;51.986;5.696;2023-05-07T00:25:53;17.3;74.0
78455;SHT31;67751;51.986;5.696;2023-05-07T00:28:23;17.3;73.9
78455;SHT31;67751;51.986;5.696;2023-05-07T00:30:52;17.3;73.8
78455;SHT31;67751;51.986;5.696;2023-05-07T00:33:22;17.3;73.7
78455;SHT31;67751;51.986;5.696;2023-05-07T00:35:54;17.2;73.6
78455;SHT31;67751;51.986;5.696;2023-05-07T00:38:23;17.2;73.4
78455;SHT31;67751;51.986;5.696;2023-05-07T00:40:53;17.2;73.3
78455;SHT31;67751;51.986;5.696;2023-05-07T00:43:22;17.2;73.4
78455;SHT31;67751;51.986;5.696;2023-05-07T00:45:52;17.2;73.3
78455;SHT31;67751;51.986;5.696;2023-05-07T00:48:22;17.1;73.3
78455;SHT31;67751;51.986;5.696;2023-05-07T00:50:53;17.1;73.2
78455;SHT31;67751;51.986;5.696;2023-05-07T00:53:23;17.1;73.2
78455;SHT31;67751;51.986;5.696;2023-05-07T00:55:54;17.1;73.3
78455;SHT31;67751;51.986;5.696;2023-05-07T00:58:24;17.1;73.3
78455;SHT31;67751;51.986;5.696;2023-05-07T01:00:56;17.0;73.4
78455;SHT31;67751;51.986;5.696;2023-05-07T01:03:26;17.0;73.5
78455;SHT31;67751;51.986;5.696;2023-05-07T01:05:57;17.0;73.7
78455;SHT31;67751;51.986;5.696;2023-05-07T01:08:29;17.0;73.6
78455;SHT31;67751;51.986;5.696;2023-05-07T01:11:00;17.0;73.7
78455;SHT31;67751;51.986;5.696;2023-05-07T01:13:31;17.0;73.7
78455;SHT31;67751;51.986;5.696;2023-05-07T01:16:01;17.0;73.8
78455;SHT31;67751;51.986;5.696;2023-05-07T01:18:33;16.9;73.9
78455;SHT31;67751;51.986;5.696;2023-05-07T01:21:06;16.9;74.0
78455;SHT31;67751;51.986;5.696;2023-05-07T01:23:41;16.9;74.1
78455;SHT31;67751;51.986;5.696;2023-05-07T01:26:10;16.9;74.2
78455;SHT31;67751;51.986;5.696;2023-05-07T01:28:40;16.9;74.3
78455;SHT31;67751;51.986;5.696;2023-05-07T01:31:10;16.9;74.4
78455;SHT31;67751;51.986;5.696;2023-05-07T01:33:45;16.9;74.4
78455;SHT31;67751;51.986;5.696;2023-05-07T01:36:17;16.9;74.5
78455;SHT31;67751;51.986;5.696;2023-05-07T01:38:47;16.9;74.5
78455;SHT31;67751;51.986;5.696;2023-05-07T01:41:20;16.9;74.5
78455;SHT31;67751;51.986;5.696;2023-05-07T01:43:52;16.9;74.5
78455;SHT31;67751;51.986;5.696;2023-05-07T01:46:21;16.9;74.6
78455;SHT31;67751;51.986;5.696;2023-05-07T01:48:53;16.9;74.6
78455;SHT31;67751;51.986;5.696;2023-05-07T01:51:23;16.9;74.5
78455;SHT31;67751;51.986;5.696;2023-05-07T01:53:55;16.9;74.5
78455;SHT31;67751;51.986;5.696;2023-05-07T01:56:25;16.9;74.4
78455;SHT31;67751;51.986;5.696;2023-05-07T01:58:55;16.9;74.4
78455;SHT31;67751;51.986;5.696;2023-05-07T02:01:25;16.9;74.4
78455;SHT31;67751;51.986;5.696;2023-05-07T02:03:54;16.9;74.4
78455;SHT31;67751;51.986;5.696;2023-05-07T02:06:24;16.9;74.4
78455;SHT31;67751;51.986;5.696;2023-05-07T02:08:53;16.9;74.5
78455;SHT31;67751;51.986;5.696;2023-05-07T02:11:23;16.9;74.4
78455;SHT31;67751;51.986;5.696;2023-05-07T02:13:53;16.9;74.5
78455;SHT31;67751;51.986;5.696;2023-05-07T02:16:22;16.8;74.5
78455;SHT31;67751;51.986;5.696;2023-05-07T02:18:52;16.8;74.5
78455;SHT31;67751;51.986;5.696;2023-05-07T02:21:22;16.8;74.6
78455;SHT31;67751;51.986;5.696;2023-05-07T02:23:52;16.8;74.7
78455;SHT31;67751;51.986;5.696;2023-05-07T02:26:22;16.8;74.7
78455;SHT31;67751;51.986;5.696;2023-05-07T02:28:53;16.8;74.8
78455;SHT31;67751;51.986;5.696;2023-05-07T02:31:23;16.8;74.8
78455;SHT31;67751;51.986;5.696;2023-05-07T02:33:52;16.8;74.9
78455;SHT31;67751;51.986;5.696;2023-05-07T02:36:22;16.8;74.9
78455;SHT31;67751;51.986;5.696;2023-05-07T02:38:52;16.8;74.9
78455;SHT31;67751;51.986;5.696;2023-05-07T02:41:24;16.8;75.0
78455;SHT31;67751;51.986;5.696;2023-05-07T02:43:55;16.8;74.9
78455;SHT31;67751;51.986;5.696;2023-05-07T02:46:25;16.8;74.9
78455;SHT31;67751;51.986;5.696;2023-05-07T02:48:56;16.8;74.9
78455;SHT31;67751;51.986;5.696;2023-05-07T02:51:29;16.8;74.8
78455;SHT31;67751;51.986;5.696;2023-05-07T02:53:59;16.8;74.9
78455;SHT31;67751;51.986;5.696;2023-05-07T02:56:29;16.8;74.8
78455;SHT31;67751;51.986;5.696;2023-05-07T02:58:59;16.8;74.8
78455;SHT31;67751;51.986;5.696;2023-05-07T03:01:29;16.8;74.7
78455;SHT31;67751;51.986;5.696;2023-05-07T03:03:58;16.8;74.6
78455;SHT31;67751;51.986;5.696;2023-05-07T03:06:28;16.8;74.7
78455;SHT31;67751;51.986;5.696;2023-05-07T03:08:57;16.8;74.7
78455;SHT31;67751;51.986;5.696;2023-05-07T03:11:27;16.8;74.7
78455;SHT31;67751;51.986;5.696;2023-05-07T03:13:57;16.8;74.6
78455;SHT31;67751;51.986;5.696;2023-05-07T03:16:26;16.8;74.6
78455;SHT31;67751;51.986;5.696;2023-05-07T03:18:56;16.8;74.5
78455;SHT31;67751;51.986;5.696;2023-05-07T03:21:26;16.8;74.4
78455;SHT31;67751;51.986;5.696;2023-05-07T03:23:55;16.8;74.4
78455;SHT31;67751;51.986;5.696;2023-05-07T03:26:25;16.7;74.5
78455;SHT31;67751;51.986;5.696;2023-05-07T03:28:54;16.7;74.6
78455;SHT31;67751;51.986;5.696;2023-05-07T03:31:24;16.7;74.5
78455;SHT31;67751;51.986;5.696;2023-05-07T03:33:56;16.7;74.6
78455;SHT31;67751;51.986;5.696;2023-05-07T03:36:25;16.7;74.6
78455;SHT31;67751;51.986;5.696;2023-05-07T03:38:55;16.7;74.6
78455;SHT31;67751;51.986;5.696;2023-05-07T03:41:25;16.7;74.7
78455;SHT31;67751;51.986;5.696;2023-05-07T03:43:57;16.7;74.7
78455;SHT31;67751;51.986;5.696;2023-05-07T03:46:26;16.7;74.6
78455;SHT31;67751;51.986;5.696;2023-05-07T03:48:56;16.7;74.7
78455;SHT31;67751;51.986;5.696;2023-05-07T03:51:26;16.7;74.7
78455;SHT31;67751;51.986;5.696;2023-05-07T03:53:55;16.7;74.7
78455;SHT31;67751;51.986;5.696;2023-05-07T03:56:25;16.7;74.7
78455;SHT31;67751;51.986;5.696;2023-05-07T03:58:57;16.7;74.6
78455;SHT31;67751;51.986;5.696;2023-05-07T04:01:27;16.7;74.6
78455;SHT31;67751;51.986;5.696;2023-05-07T04:03:57;16.7;74.7
78455;SHT31;67751;51.986;5.696;2023-05-07T04:06:26;16.7;74.7
78455;SHT31;67751;51.986;5.696;2023-05-07T04:08:56;16.7;74.8
78455;SHT31;67751;51.986;5.696;2023-05-07T04:11:27;16.7;74.8
78455;SHT31;67751;51.986;5.696;2023-05-07T04:13:56;16.7;74.7
78455;SHT31;67751;51.986;5.696;2023-05-07T04:16:26;16.7;74.9
78455;SHT31;67751;51.986;5.696;2023-05-07T04:18:55;16.7;74.9
78455;SHT31;67751;51.986;5.696;2023-05-07T04:21:27;16.7;74.9
78455;SHT31;67751;51.986;5.696;2023-05-07T04:23:57;16.7;74.9
78455;SHT31;67751;51.986;5.696;2023-05-07T04:26:26;16.6;75.1
78455;SHT31;67751;51.986;5.696;2023-05-07T04:28:57;16.6;75.1
78455;SHT31;67751;51.986;5.696;2023-05-07T04:31:27;16.6;75.1
78455;SHT31;67751;51.986;5.696;2023-05-07T04:33:58;16.6;75.2
78455;SHT31;67751;51.986;5.696;2023-05-07T04:36:28;16.6;75.2
78455;SHT31;67751;51.986;5.696;2023-05-07T04:38:57;16.6;75.3
78455;SHT31;67751;51.986;5.696;2023-05-07T04:41:27;16.6;75.3
78455;SHT31;67751;51.986;5.696;2023-05-07T04:43:57;16.6;75.2
78455;SHT31;67751;51.986;5.696;2023-05-07T04:46:30;16.6;75.2
78455;SHT31;67751;51.986;5.696;2023-05-07T04:48:59;16.6;75.2
78455;SHT31;67751;51.986;5.696;2023-05-07T04:51:29;16.6;75.2
78455;SHT31;67751;51.986;5.696;2023-05-07T04:54:00;16.6;75.3
78455;SHT31;67751;51.986;5.696;2023-05-07T04:56:29;16.6;75.3
78455;SHT31;67751;51.986;5.696;2023-05-07T04:58:59;16.6;75.3
78455;SHT31;67751;51.986;5.696;2023-05-07T05:01:29;16.6;75.3
78455;SHT31;67751;51.986;5.696;2023-05-07T05:03:58;16.6;75.4
78455;SHT31;67751;51.986;5.696;2023-05-07T05:06:29;16.6;75.3
78455;SHT31;67751;51.986;5.696;2023-05-07T05:09:01;16.6;75.4
78455;SHT31;67751;51.986;5.696;2023-05-07T05:11:32;16.6;75.4
78455;SHT31;67751;51.986;5.696;2023-05-07T05:14:02;16.6;75.4
78455;SHT31;67751;51.986;5.696;2023-05-07T05:16:31;16.6;75.5
78455;SHT31;67751;51.986;5.696;2023-05-07T05:19:01;16.6;75.5
78455;SHT31;67751;51.986;5.696;2023-05-07T05:21:32;16.6;75.6
78455;SHT31;67751;51.986;5.696;2023-05-07T05:24:01;16.6;75.7
78455;SHT31;67751;51.986;5.696;2023-05-07T05:26:31;16.6;75.6
78455;SHT31;67751;51.986;5.696;2023-05-07T05:29:01;16.6;75.8
78455;SHT31;67751;51.986;5.696;2023-05-07T05:31:32;16.6;75.8
78455;SHT31;67751;51.986;5.696;2023-05-07T05:34:02;16.6;75.9
78455;SHT31;67751;51.986;5.696;2023-05-07T05:36:32;16.6;76.0
78455;SHT31;67751;51.986;5.696;2023-05-07T05:39:02;16.6;76.1
78455;SHT31;67751;51.986;5.696;2023-05-07T05:41:32;16.6;76.3
78455;SHT31;67751;51.986;5.696;2023-05-07T05:44:03;16.6;76.5
78455;SHT31;67751;51.986;5.696;2023-05-07T05:46:32;16.6;76.4
78455;SHT31;67751;51.986;5.696;2023-05-07T05:49:02;16.6;76.5
78455;SHT31;67751;51.986;5.696;2023-05-07T05:51:32;16.6;76.5
78455;SHT31;67751;51.986;5.696;2023-05-07T05:54:01;16.7;76.6
78455;SHT31;67751;51.986;5.696;2023-05-07T05:56:32;16.7;76.6
78455;SHT31;67751;51.986;5.696;2023-05-07T05:59:01;16.7;76.7
78455;SHT31;67751;51.986;5.696;2023-05-07T06:01:31;16.7;76.7
78455;SHT31;67751;51.986;5.696;2023-05-07T06:04:01;16.7;76.6
78455;SHT31;67751;51.986;5.696;2023-05-07T06:06:31;16.7;76.5
78455;SHT31;67751;51.986;5.696;2023-05-07T06:09:00;16.7;76.6
78455;SHT31;67751;51.986;5.696;2023-05-07T06:11:31;16.7;76.5
78455;SHT31;67751;51.986;5.696;2023-05-07T06:14:01;16.8;76.6
78455;SHT31;67751;51.986;5.696;2023-05-07T06:16:30;16.8;76.7
78455;SHT31;67751;51.986;5.696;2023-05-07T06:19:00;16.8;76.5
78455;SHT31;67751;51.986;5.696;2023-05-07T06:21:30;16.8;76.6
78455;SHT31;67751;51.986;5.696;2023-05-07T06:24:00;16.8;76.5
78455;SHT31;67751;51.986;5.696;2023-05-07T06:26:29;16.8;76.8
78455;SHT31;67751;51.986;5.696;2023-05-07T06:28:59;16.8;77.1
78455;SHT31;67751;51.986;5.696;2023-05-07T06:31:30;16.8;77.4
78455;SHT31;67751;51.986;5.696;2023-05-07T06:34:03;16.8;77.3
78455;SHT31;67751;51.986;5.696;2023-05-07T06:36:32;16.9;77.4
78455;SHT31;67751;51.986;5.696;2023-05-07T06:39:02;16.9;77.2
78455;SHT31;67751;51.986;5.696;2023-05-07T06:41:32;16.9;77.0
78455;SHT31;67751;51.986;5.696;2023-05-07T06:44:02;16.9;77.1
78455;SHT31;67751;51.986;5.696;2023-05-07T06:46:32;17.0;77.2
78455;SHT31;67751;51.986;5.696;2023-05-07T06:49:02;17.0;76.7
78455;SHT31;67751;51.986;5.696;2023-05-07T06:51:31;17.0;76.9
78455;SHT31;67751;51.986;5.696;2023-05-07T06:54:01;17.0;77.1
78455;SHT31;67751;51.986;5.696;2023-05-07T06:56:31;17.0;76.9
78455;SHT31;67751;51.986;5.696;2023-05-07T06:59:01;17.0;76.7
78455;SHT31;67751;51.986;5.696;2023-05-07T07:01:31;17.0;76.9
78455;SHT31;67751;51.986;5.696;2023-05-07T07:04:01;17.0;77.2
78455;SHT31;67751;51.986;5.696;2023-05-07T07:06:30;17.0;77.3
78455;SHT31;67751;51.986;5.696;2023-05-07T07:09:00;17.0;77.0
78455;SHT31;67751;51.986;5.696;2023-05-07T07:11:30;17.1;77.2
78455;SHT31;67751;51.986;5.696;2023-05-07T07:13:59;17.1;77.2
78455;SHT31;67751;51.986;5.696;2023-05-07T07:16:29;17.1;77.0
78455;SHT31;67751;51.986;5.696;2023-05-07T07:18:58;17.1;77.0
78455;SHT31;67751;51.986;5.696;2023-05-07T07:21:28;17.1;77.7
78455;SHT31;67751;51.986;5.696;2023-05-07T07:23:57;17.1;77.8
78455;SHT31;67751;51.986;5.696;2023-05-07T07:26:27;17.2;77.1
78455;SHT31;67751;51.986;5.696;2023-05-07T07:28:57;17.2;77.1
78455;SHT31;67751;51.986;5.696;2023-05-07T07:31:27;17.2;76.6
78455;SHT31;67751;51.986;5.696;2023-05-07T07:33:57;17.2;77.2
78455;SHT31;67751;51.986;5.696;2023-05-07T07:36:27;17.2;77.4
78455;SHT31;67751;51.986;5.696;2023-05-07T07:38:57;17.2;77.2
78455;SHT31;67751;51.986;5.696;2023-05-07T07:41:27;17.2;77.3
78455;SHT31;67751;51.986;5.696;2023-05-07T07:43:56;17.2;77.5
78455;SHT31;67751;51.986;5.696;2023-05-07T07:46:26;17.3;77.0
78455;SHT31;67751;51.986;5.696;2023-05-07T07:48:55;17.3;77.6
78455;SHT31;67751;51.986;5.696;2023-05-07T07:51:27;17.3;78.4
78455;SHT31;67751;51.986;5.696;2023-05-07T07:53:57;17.3;78.5
78455;SHT31;67751;51.986;5.696;2023-05-07T07:56:29;17.3;78.3
78455;SHT31;67751;51.986;5.696;2023-05-07T07:59:01;17.4;77.9
78455;SHT31;67751;51.986;5.696;2023-05-07T08:01:31;17.4;78.5
78455;SHT31;67751;51.986;5.696;2023-05-07T08:04:01;17.4;78.9
78455;SHT31;67751;51.986;5.696;2023-05-07T08:06:30;17.4;78.9
78455;SHT31;67751;51.986;5.696;2023-05-07T08:09:00;17.4;79.4
78455;SHT31;67751;51.986;5.696;2023-05-07T08:11:30;17.5;78.3
78455;SHT31;67751;51.986;5.696;2023-05-07T08:14:00;17.5;78.5
78455;SHT31;67751;51.986;5.696;2023-05-07T08:16:29;17.5;78.5
78455;SHT31;67751;51.986;5.696;2023-05-07T08:18:59;17.5;79.2
78455;SHT31;67751;51.986;5.696;2023-05-07T08:21:29;17.5;79.5
78455;SHT31;67751;51.986;5.696;2023-05-07T08:23:58;17.6;80.0
78455;SHT31;67751;51.986;5.696;2023-05-07T08:26:28;17.6;78.9
78455;SHT31;67751;51.986;5.696;2023-05-07T08:28:58;17.6;79.2
78455;SHT31;67751;51.986;5.696;2023-05-07T08:31:29;17.7;79.4
78455;SHT31;67751;51.986;5.696;2023-05-07T08:34:00;17.7;78.8
78455;SHT31;67751;51.986;5.696;2023-05-07T08:36:29;17.7;78.5
78455;SHT31;67751;51.986;5.696;2023-05-07T08:38:59;17.7;77.9
78455;SHT31;67751;51.986;5.696;2023-05-07T08:41:30;17.8;78.3
78455;SHT31;67751;51.986;5.696;2023-05-07T08:44:03;17.8;78.6
78455;SHT31;67751;51.986;5.696;2023-05-07T08:46:36;17.8;78.9
78455;SHT31;67751;51.986;5.696;2023-05-07T08:49:05;17.8;78.7
78455;SHT31;67751;51.986;5.696;2023-05-07T08:51:35;17.8;78.4
78455;SHT31;67751;51.986;5.696;2023-05-07T08:54:05;17.8;77.9
78455;SHT31;67751;51.986;5.696;2023-05-07T08:56:36;17.9;77.9
78455;SHT31;67751;51.986;5.696;2023-05-07T08:59:07;17.9;77.7
78455;SHT31;67751;51.986;5.696;2023-05-07T09:01:37;17.9;78.1
78455;SHT31;67751;51.986;5.696;2023-05-07T09:04:07;17.9;78.9
78455;SHT31;67751;51.986;5.696;2023-05-07T09:06:37;17.9;78.3
78455;SHT31;67751;51.986;5.696;2023-05-07T09:09:09;18.0;78.8
78455;SHT31;67751;51.986;5.696;2023-05-07T09:11:42;18.0;78.4
78455;SHT31;67751;51.986;5.696;2023-05-07T09:14:12;18.0;77.9
78455;SHT31;67751;51.986;5.696;2023-05-07T09:16:42;18.0;78.1
78455;SHT31;67751;51.986;5.696;2023-05-07T09:19:11;18.0;78.3
78455;SHT31;67751;51.986;5.696;2023-05-07T09:21:41;18.1;78.8
78455;SHT31;67751;51.986;5.696;2023-05-07T09:24:10;18.1;79.8
78455;SHT31;67751;51.986;5.696;2023-05-07T09:26:40;18.1;80.0
78455;SHT31;67751;51.986;5.696;2023-05-07T09:29:10;18.2;80.1
78455;SHT31;67751;51.986;5.696;2023-05-07T09:31:40;18.2;78.6
78455;SHT31;67751;51.986;5.696;2023-05-07T09:34:12;18.3;76.9
78455;SHT31;67751;51.986;5.696;2023-05-07T09:36:41;18.3;76.9
78455;SHT31;67751;51.986;5.696;2023-05-07T09:39:11;18.4;75.7
78455;SHT31;67751;51.986;5.696;2023-05-07T09:41:47;18.4;75.0
78455;SHT31;67751;51.986;5.696;2023-05-07T09:44:18;18.5;75.2
78455;SHT31;67751;51.986;5.696;2023-05-07T09:46:55;18.5;76.7
78455;SHT31;67751;51.986;5.696;2023-05-07T09:49:29;18.5;77.1
78455;SHT31;67751;51.986;5.696;2023-05-07T09:52:00;18.5;76.7
78455;SHT31;67751;51.986;5.696;2023-05-07T09:54:33;18.5;77.5
78455;SHT31;67751;51.986;5.696;2023-05-07T09:57:05;18.6;77.6
78455;SHT31;67751;51.986;5.696;2023-05-07T09:59:37;18.6;77.5
78455;SHT31;67751;51.986;5.696;2023-05-07T10:02:11;18.6;77.2
78455;SHT31;67751;51.986;5.696;2023-05-07T10:04:43;18.7;76.8
78455;SHT31;67751;51.986;5.696;2023-05-07T10:07:14;18.7;75.0
78455;SHT31;67751;51.986;5.696;2023-05-07T10:09:46;18.7;74.4
78455;SHT31;67751;51.986;5.696;2023-05-07T10:12:18;18.7;75.4
78455;SHT31;67751;51.986;5.696;2023-05-07T10:14:48;18.8;75.5
78455;SHT31;67751;51.986;5.696;2023-05-07T10:17:20;18.8;74.9
78455;SHT31;67751;51.986;5.696;2023-05-07T10:19:50;18.8;74.5
78455;SHT31;67751;51.986;5.696;2023-05-07T10:22:25;18.8;73.6
78455;SHT31;67751;51.986;5.696;2023-05-07T10:24:56;18.9;74.0
78455;SHT31;67751;51.986;5.696;2023-05-07T10:27:29;18.9;72.5
78455;SHT31;67751;51.986;5.696;2023-05-07T10:30:10;18.9;72.5
78455;SHT31;67751;51.986;5.696;2023-05-07T10:32:46;18.9;73.1
78455;SHT31;67751;51.986;5.696;2023-05-07T10:35:21;18.9;74.9
78455;SHT31;67751;51.986;5.696;2023-05-07T10:37:53;19.0;72.7
78455;SHT31;67751;51.986;5.696;2023-05-07T10:40:22;19.0;73.6
78455;SHT31;67751;51.986;5.696;2023-05-07T10:42:56;19.0;74.7
78455;SHT31;67751;51.986;5.696;2023-05-07T10:45:28;19.0;74.0
78455;SHT31;67751;51.986;5.696;2023-05-07T10:48:08;19.0;72.8
78455;SHT31;67751;51.986;5.696;2023-05-07T10:50:39;19.1;72.8
78455;SHT31;67751;51.986;5.696;2023-05-07T10:53:25;19.1;73.5
78455;SHT31;67751;51.986;5.696;2023-05-07T10:56:25;19.1;74.0
78455;SHT31;67751;51.986;5.696;2023-05-07T10:59:31;19.2;73.9
78455;SHT31;67751;51.986;5.696;2023-05-07T11:02:02;19.2;72.2
78455;SHT31;67751;51.986;5.696;2023-05-07T11:04:34;19.2;74.1
78455;SHT31;67751;51.986;5.696;2023-05-07T11:07:31;19.3;72.1
78455;SHT31;67751;51.986;5.696;2023-05-07T11:10:05;19.3;70.8
78455;SHT31;67751;51.986;5.696;2023-05-07T11:12:51;19.4;72.4
78455;SHT31;67751;51.986;5.696;2023-05-07T11:15:38;19.4;69.4
78455;SHT31;67751;51.986;5.696;2023-05-07T11:18:10;19.5;67.8
78455;SHT31;67751;51.986;5.696;2023-05-07T11:20:48;19.5;69.4
78455;SHT31;67751;51.986;5.696;2023-05-07T11:28:22;19.7;68.9
78455;SHT31;67751;51.986;5.696;2023-05-07T11:30:53;19.7;70.6
78455;SHT31;67751;51.986;5.696;2023-05-07T11:33:25;19.8;68.8
78455;SHT31;67751;51.986;5.696;2023-05-07T11:35:55;19.8;71.3
78455;SHT31;67751;51.986;5.696;2023-05-07T11:38:26;19.8;70.2
78455;SHT31;67751;51.986;5.696;2023-05-07T11:40:57;19.8;68.4
78455;SHT31;67751;51.986;5.696;2023-05-07T11:43:28;19.8;70.7
78455;SHT31;67751;51.986;5.696;2023-05-07T11:46:08;19.9;68.6
78455;SHT31;67751;51.986;5.696;2023-05-07T11:48:38;19.9;68.2
78455;SHT31;67751;51.986;5.696;2023-05-07T11:51:08;19.9;70.7
78455;SHT31;67751;51.986;5.696;2023-05-07T11:53:40;19.9;70.6
78455;SHT31;67751;51.986;5.696;2023-05-07T11:56:12;20.0;70.5
78455;SHT31;67751;51.986;5.696;2023-05-07T11:58:43;20.0;70.1
78455;SHT31;67751;51.986;5.696;2023-05-07T12:01:14;20.0;69.7
78455;SHT31;67751;51.986;5.696;2023-05-07T12:03:46;20.0;68.7
78455;SHT31;67751;51.986;5.696;2023-05-07T12:06:17;20.1;70.2
78455;SHT31;67751;51.986;5.696;2023-05-07T12:08:47;20.1;69.5
78455;SHT31;67751;51.986;5.696;2023-05-07T12:11:24;20.1;69.4
78455;SHT31;67751;51.986;5.696;2023-05-07T12:13:55;20.1;68.7
78455;SHT31;67751;51.986;5.696;2023-05-07T12:16:25;20.2;67.9
78455;SHT31;67751;51.986;5.696;2023-05-07T12:18:55;20.2;67.5
78455;SHT31;67751;51.986;5.696;2023-05-07T12:21:26;20.2;68.8
78455;SHT31;67751;51.986;5.696;2023-05-07T12:23:56;20.2;68.2
78455;SHT31;67751;51.986;5.696;2023-05-07T12:26:26;20.3;66.7
78455;SHT31;67751;51.986;5.696;2023-05-07T12:28:57;20.3;68.0
78455;SHT31;67751;51.986;5.696;2023-05-07T12:31:27;20.3;69.5
78455;SHT31;67751;51.986;5.696;2023-05-07T12:33:57;20.3;67.2
78455;SHT31;67751;51.986;5.696;2023-05-07T12:36:39;20.4;67.1
78455;SHT31;67751;51.986;5.696;2023-05-07T12:39:09;20.4;67.1
78455;SHT31;67751;51.986;5.696;2023-05-07T12:41:54;20.4;68.5
78455;SHT31;67751;51.986;5.696;2023-05-07T12:44:29;20.5;68.6
78455;SHT31;67751;51.986;5.696;2023-05-07T12:47:01;20.5;67.9
78455;SHT31;67751;51.986;5.696;2023-05-07T12:49:34;20.6;68.9
78455;SHT31;67751;51.986;5.696;2023-05-07T12:52:06;20.6;66.4
78455;SHT31;67751;51.986;5.696;2023-05-07T12:54:38;20.7;67.8
78455;SHT31;67751;51.986;5.696;2023-05-07T12:57:09;20.7;68.4
78455;SHT31;67751;51.986;5.696;2023-05-07T12:59:40;20.8;67.6
78455;SHT31;67751;51.986;5.696;2023-05-07T13:02:10;20.8;65.8
78455;SHT31;67751;51.986;5.696;2023-05-07T13:04:42;20.9;67.1
78455;SHT31;67751;51.986;5.696;2023-05-07T13:07:11;21.0;62.9
78455;SHT31;67751;51.986;5.696;2023-05-07T13:09:41;21.0;60.5
78455;SHT31;67751;51.986;5.696;2023-05-07T13:12:11;21.0;60.4
78455;SHT31;67751;51.986;5.696;2023-05-07T13:14:41;21.0;61.0
78455;SHT31;67751;51.986;5.696;2023-05-07T13:17:11;21.0;61.6
78455;SHT31;67751;51.986;5.696;2023-05-07T13:19:40;21.1;62.2
78455;SHT31;67751;51.986;5.696;2023-05-07T13:22:12;21.1;64.6
78455;SHT31;67751;51.986;5.696;2023-05-07T13:24:41;21.1;61.1
78455;SHT31;67751;51.986;5.696;2023-05-07T13:27:11;21.1;62.7
78455;SHT31;67751;51.986;5.696;2023-05-07T13:29:41;21.1;61.2
78455;SHT31;67751;51.986;5.696;2023-05-07T13:32:10;21.1;62.2
78455;SHT31;67751;51.986;5.696;2023-05-07T13:34:40;21.1;61.3
78455;SHT31;67751;51.986;5.696;2023-05-07T13:37:09;21.1;60.7
78455;SHT31;67751;51.986;5.696;2023-05-07T13:39:39;21.1;58.0
78455;SHT31;67751;51.986;5.696;2023-05-07T13:42:09;21.1;59.5
78455;SHT31;67751;51.986;5.696;2023-05-07T13:44:38;21.2;60.8
78455;SHT31;67751;51.986;5.696;2023-05-07T13:47:08;21.2;62.5
78455;SHT31;67751;51.986;5.696;2023-05-07T13:49:38;21.2;63.2
78455;SHT31;67751;51.986;5.696;2023-05-07T13:52:09;21.2;63.2
78455;SHT31;67751;51.986;5.696;2023-05-07T13:54:39;21.2;64.1
78455;SHT31;67751;51.986;5.696;2023-05-07T13:57:08;21.3;62.5
78455;SHT31;67751;51.986;5.696;2023-05-07T13:59:38;21.3;63.0
78455;SHT31;67751;51.986;5.696;2023-05-07T14:02:08;21.3;61.4
78455;SHT31;67751;51.986;5.696;2023-05-07T14:04:37;21.3;62.2
78455;SHT31;67751;51.986;5.696;2023-05-07T14:07:07;21.4;63.9
78455;SHT31;67751;51.986;5.696;2023-05-07T14:09:37;21.4;63.7
78455;SHT31;67751;51.986;5.696;2023-05-07T14:12:07;21.4;61.8
78455;SHT31;67751;51.986;5.696;2023-05-07T14:14:37;21.4;61.0
78455;SHT31;67751;51.986;5.696;2023-05-07T14:17:06;21.4;61.9
78455;SHT31;67751;51.986;5.696;2023-05-07T14:19:36;21.4;61.3
78455;SHT31;67751;51.986;5.696;2023-05-07T14:22:05;21.4;61.2
78455;SHT31;67751;51.986;5.696;2023-05-07T14:24:35;21.4;63.7
78455;SHT31;67751;51.986;5.696;2023-05-07T14:27:06;21.4;61.0
78455;SHT31;67751;51.986;5.696;2023-05-07T14:29:35;21.4;61.2
78455;SHT31;67751;51.986;5.696;2023-05-07T14:32:05;21.4;62.4
78455;SHT31;67751;51.986;5.696;2023-05-07T14:34:35;21.4;62.4
78455;SHT31;67751;51.986;5.696;2023-05-07T14:37:04;21.4;60.6
78455;SHT31;67751;51.986;5.696;2023-05-07T14:39:34;21.4;62.0
78455;SHT31;67751;51.986;5.696;2023-05-07T14:42:04;21.5;61.2
78455;SHT31;67751;51.986;5.696;2023-05-07T14:44:35;21.5;62.4
78455;SHT31;67751;51.986;5.696;2023-05-07T14:47:05;21.5;62.5
78455;SHT31;67751;51.986;5.696;2023-05-07T14:49:35;21.5;60.8
78455;SHT31;67751;51.986;5.696;2023-05-07T14:52:05;21.5;61.0
78455;SHT31;67751;51.986;5.696;2023-05-07T14:54:37;21.5;61.8
78455;SHT31;67751;51.986;5.696;2023-05-07T14:57:08;21.5;61.8
78455;SHT31;67751;51.986;5.696;2023-05-07T14:59:40;21.5;61.4
78455;SHT31;67751;51.986;5.696;2023-05-07T15:02:11;21.5;60.7
78455;SHT31;67751;51.986;5.696;2023-05-07T15:04:41;21.5;61.3
78455;SHT31;67751;51.986;5.696;2023-05-07T15:07:14;21.5;61.1
78455;SHT31;67751;51.986;5.696;2023-05-07T15:09:44;21.5;61.7
78455;SHT31;67751;51.986;5.696;2023-05-07T15:12:14;21.5;62.7
78455;SHT31;67751;51.986;5.696;2023-05-07T15:14:44;21.5;61.9
78455;SHT31;67751;51.986;5.696;2023-05-07T15:17:13;21.5;63.2
78455;SHT31;67751;51.986;5.696;2023-05-07T15:19:44;21.5;64.3
78455;SHT31;67751;51.986;5.696;2023-05-07T15:22:13;21.5;62.3
78455;SHT31;67751;51.986;5.696;2023-05-07T15:24:43;21.5;60.7
78455;SHT31;67751;51.986;5.696;2023-05-07T15:27:13;21.4;59.2
78455;SHT31;67751;51.986;5.696;2023-05-07T15:29:44;21.4;59.2
78455;SHT31;67751;51.986;5.696;2023-05-07T15:32:13;21.3;58.6
78455;SHT31;67751;51.986;5.696;2023-05-07T15:34:43;21.2;59.1
78455;SHT31;67751;51.986;5.696;2023-05-07T15:37:12;21.1;58.3
78455;SHT31;67751;51.986;5.696;2023-05-07T15:39:42;21.0;59.4
78455;SHT31;67751;51.986;5.696;2023-05-07T15:42:11;20.9;59.5
78455;SHT31;67751;51.986;5.696;2023-05-07T15:44:41;20.8;59.3
78455;SHT31;67751;51.986;5.696;2023-05-07T15:47:10;20.6;59.3
78455;SHT31;67751;51.986;5.696;2023-05-07T15:49:41;20.5;60.9
78455;SHT31;67751;51.986;5.696;2023-05-07T15:52:12;20.4;62.1
78455;SHT31;67751;51.986;5.696;2023-05-07T15:54:42;20.3;63.2
78455;SHT31;67751;51.986;5.696;2023-05-07T15:57:11;20.2;64.3
78455;SHT31;67751;51.986;5.696;2023-05-07T15:59:41;20.1;65.3
78455;SHT31;67751;51.986;5.696;2023-05-07T16:02:11;20.0;66.0
78455;SHT31;67751;51.986;5.696;2023-05-07T16:04:43;19.9;66.5
78455;SHT31;67751;51.986;5.696;2023-05-07T16:07:12;19.8;67.4
78455;SHT31;67751;51.986;5.696;2023-05-07T16:09:42;19.7;68.1
78455;SHT31;67751;51.986;5.696;2023-05-07T16:12:12;19.7;68.9
78455;SHT31;67751;51.986;5.696;2023-05-07T16:14:42;19.6;69.3
78455;SHT31;67751;51.986;5.696;2023-05-07T16:17:12;19.6;69.5
78455;SHT31;67751;51.986;5.696;2023-05-07T16:19:41;19.5;68.4
78455;SHT31;67751;51.986;5.696;2023-05-07T16:22:11;19.5;69.1
78455;SHT31;67751;51.986;5.696;2023-05-07T16:24:41;19.4;68.5
78455;SHT31;67751;51.986;5.696;2023-05-07T16:27:10;19.4;69.0
78455;SHT31;67751;51.986;5.696;2023-05-07T16:29:40;19.4;69.1